Time;durP1;ratioP1;P1;durP2;ratioP2;P2;SDS_P1;SDS_P2;PMS_P1;PMS_P2;Temp;Humidity;BMP_temperature;BMP_pressure;BME280_temperature;BME280_humidity;BME280_pressure;Samples;Min_cycle;Max_cycle;Signal;HPM_P1;HPM_P2
2023/01/27 00:00:15;;;;;;;;;16.50;10.50;;;;;6.80;69.95;101801.38;5057121;28;45590;-62
2023/01/27 00:02:42;;;;;;;;;18.75;15.50;;;;;6.81;69.97;101800.47;5057928;28;45318;-61
2023/01/27 00:05:09;;;;;;;;;18.75;16.75;;;;;6.77;69.72;101801.41;5057858;28;45405;-64
2023/01/27 00:07:35;;;;;;;;;10.00;6.00;;;;;6.79;70.08;101794.34;5058762;28;45474;-66
2023/01/27 00:10:00;;;;;;;;;15.75;15.75;;;;;6.79;69.85;101800.50;5057639;28;45374;-65
2023/01/27 00:15:12;;;;;;;;;11.75;9.25;;;;;6.72;69.83;101787.44;5058005;28;45536;-64
2023/01/27 00:17:38;;;;;;;;;13.25;8.00;;;;;6.84;69.71;101796.88;5051410;28;45516;-61
2023/01/27 00:20:05;;;;;;;;;10.25;7.50;;;;;6.82;70.09;101794.28;5056764;28;46041;-66
2023/01/27 00:25:14;;;;;;;;;4.50;4.50;;;;;6.80;70.59;101801.38;5056661;28;45355;-63
2023/01/27 00:27:40;;;;;;;;;7.00;4.50;;;;;6.80;70.10;101794.31;5058057;28;45576;-63
2023/01/27 00:30:07;;;;;;;;;2.00;2.00;;;;;6.83;70.30;101801.31;5057625;28;46115;-65
2023/01/27 00:35:17;;;;;;;;;5.00;3.50;;;;;6.86;70.07;101800.38;5058667;28;45164;-62
2023/01/27 00:37:43;;;;;;;;;11.00;5.25;;;;;6.79;70.49;101799.63;5058007;28;45485;-64
2023/01/27 00:40:11;;;;;;;;;5.25;4.25;;;;;6.83;70.16;101789.84;5057359;28;46028;-63
2023/01/27 00:42:37;;;;;;;;;5.25;2.00;;;;;6.74;70.74;101786.50;5058099;28;45400;-65
2023/01/27 00:47:48;;;;;;;;;8.75;3.00;;;;;6.75;70.08;101779.44;5056135;28;45485;-60
2023/01/27 00:50:15;;;;;;;;;2.50;2.00;;;;;6.74;70.28;101785.63;5057091;28;45476;-58
2023/01/27 00:52:40;;;;;;;;;5.75;4.25;;;;;6.76;69.76;101789.09;5057127;28;45189;-57
2023/01/27 00:55:07;;;;;;;;;5.75;2.00;;;;;6.76;70.27;101783.81;5057206;28;45450;-65
2023/01/27 00:57:32;;;;;;;;;4.50;4.00;;;;;6.74;69.92;101772.41;5056657;28;45267;-62
2023/01/27 00:59:57;;;;;;;;;5.25;5.00;;;;;6.82;69.91;101789.00;5072564;27;45634;-64
2023/01/27 01:02:23;;;;;;;;;4.50;4.00;;;;;6.84;69.61;101781.88;5056317;28;54156;-64
2023/01/27 01:04:48;;;;;;;;;5.00;5.00;;;;;6.82;69.25;101788.13;5057171;28;45227;-65
2023/01/27 01:07:13;;;;;;;;;5.25;5.25;;;;;6.76;68.66;101792.63;5057893;28;45560;-63
2023/01/27 01:09:39;;;;;;;;;4.00;4.00;;;;;6.75;68.84;101787.38;5073928;27;57184;-62
2023/01/27 01:12:04;;;;;;;;;3.00;3.00;;;;;6.76;69.49;101786.47;5055385;28;45400;-63
2023/01/27 01:14:30;;;;;;;;;5.00;2.50;;;;;6.78;69.48;101776.75;5057045;28;45334;-64
2023/01/27 01:16:55;;;;;;;;;4.25;4.00;;;;;6.72;69.80;101785.66;5057243;28;45530;-61
2023/01/27 01:19:21;;;;;;;;;4.25;3.50;;;;;6.69;69.94;101777.81;5049641;28;45977;-62
2023/01/27 01:21:47;;;;;;;;;0.00;0.00;;;;;6.66;69.90;101777.00;5052768;28;45435;-65
2023/01/27 01:24:12;;;;;;;;;6.00;2.50;;;;;6.66;70.86;101771.72;5060645;28;45475;-65
2023/01/27 01:26:38;;;;;;;;;9.00;4.50;;;;;6.69;70.01;101774.28;5057501;28;45557;-59
2023/01/27 01:29:03;;;;;;;;;2.00;2.00;;;;;6.66;70.48;101766.44;5055119;28;47699;-59
2023/01/27 01:31:29;;;;;;;;;1.25;1.25;;;;;6.73;70.14;101773.31;5057478;28;45311;-57
2023/01/27 01:33:54;;;;;;;;;4.75;1.00;;;;;6.69;70.08;101777.81;5056757;28;45449;-60
2023/01/27 01:36:23;;;;;;;;;4.00;1.50;;;;;6.73;69.75;101776.81;5055784;28;45330;-65
2023/01/27 01:38:54;;;;;;;;;2.00;2.00;;;;;6.74;69.66;101770.63;5050345;28;45311;-62
2023/01/27 01:41:20;;;;;;;;;2.00;2.00;;;;;6.77;69.90;101774.97;5037101;28;45247;-59
2023/01/27 01:43:46;;;;;;;;;3.50;1.00;;;;;6.79;69.29;101765.25;5054569;28;45499;-61
2023/01/27 01:46:12;;;;;;;;;1.50;1.50;;;;;6.73;69.29;101762.72;5057716;28;45464;-64
2023/01/27 01:48:45;;;;;;;;;5.00;2.00;;;;;6.83;69.03;101769.56;5055591;28;46344;-65
2023/01/27 01:51:23;;;;;;;;;2.00;2.00;;;;;6.76;68.68;101760.03;5055598;28;45505;-64
2023/01/27 01:54:18;;;;;;;;;2.00;2.00;;;;;6.78;68.68;101768.81;5056174;28;45414;-64
2023/01/27 01:56:52;;;;;;;;;4.00;2.00;;;;;6.77;69.06;101761.75;5056768;28;45261;-63
2023/01/27 01:59:29;;;;;;;;;4.75;4.75;;;;;6.71;69.06;101756.63;5057912;28;46232;-65
2023/01/27 02:01:57;;;;;;;;;3.75;2.00;;;;;6.75;69.39;101763.56;5057507;28;45166;-62
2023/01/27 02:04:26;;;;;;;;;2.00;2.00;;;;;6.65;69.48;101740.91;5056326;28;45533;-65
2023/01/27 02:07:04;;;;;;;;;1.75;1.75;;;;;6.65;69.15;101748.84;5055907;28;45618;-64
2023/01/27 02:09:30;;;;;;;;;1.00;1.00;;;;;6.71;69.06;101756.63;5070740;27;45462;-63
2023/01/27 02:11:57;;;;;;;;;4.00;1.50;;;;;6.70;69.35;101763.69;5056515;28;45421;-61
2023/01/27 02:14:22;;;;;;;;;5.75;4.00;;;;;6.67;69.04;101747.03;5054785;28;45415;-63
2023/01/27 02:16:48;;;;;;;;;1.00;0.25;;;;;6.63;69.86;101750.63;5056739;28;45355;-63
2023/01/27 02:19:30;;;;;;;;;2.50;2.50;;;;;6.70;69.43;101736.38;5055959;28;45431;-61
2023/01/27 02:21:56;;;;;;;;;5.25;5.25;;;;;6.70;68.94;101742.53;5056010;28;45468;-62
2023/01/27 02:24:30;;;;;;;;;2.00;2.00;;;;;6.63;68.51;101737.41;5056639;28;45378;-60
2023/01/27 02:26:55;;;;;;;;;1.75;1.75;;;;;6.58;68.59;101734.00;5054151;28;45440;-62
2023/01/27 02:29:21;;;;;;;;;4.00;1.75;;;;;6.63;68.61;101743.56;5055057;28;45337;-59
2023/01/27 02:31:47;;;;;;;;;4.00;2.00;;;;;6.61;68.67;101734.78;5055800;28;45567;-65
2023/01/27 02:34:22;;;;;;;;;6.25;4.00;;;;;6.71;68.42;101738.09;5056305;28;45475;-57
2023/01/27 02:36:59;;;;;;;;;1.00;1.00;;;;;6.72;68.48;101742.50;5055863;28;45394;-59
2023/01/27 02:39:31;;;;;;;;;4.50;2.50;;;;;6.80;68.50;101732.63;5055532;28;46215;-57
2023/01/27 02:41:59;;;;;;;;;3.00;2.00;;;;;6.73;68.46;101725.72;5054844;28;45391;-57
2023/01/27 02:44:24;;;;;;;;;2.50;2.50;;;;;6.77;68.39;101738.88;5055238;28;45314;-60
2023/01/27 02:46:50;;;;;;;;;5.25;2.00;;;;;6.85;68.59;101738.69;5056332;28;45456;-61
2023/01/27 02:49:15;;;;;;;;;4.25;2.00;;;;;6.73;68.37;101720.44;5070447;27;45283;-61
2023/01/27 02:51:40;;;;;;;;;1.00;1.00;;;;;6.63;68.42;101711.81;5056453;28;45336;-65
2023/01/27 02:54:06;;;;;;;;;1.50;1.50;;;;;6.81;68.63;101737.00;5055660;28;45436;-63
2023/01/27 02:56:32;;;;;;;;;3.50;3.50;;;;;6.77;68.12;101737.97;5054969;28;45291;-63
2023/01/27 02:58:57;;;;;;;;;2.00;0.50;;;;;6.73;68.15;101731.00;5055203;28;45212;-59
2023/01/27 03:01:24;;;;;;;;;3.50;0.00;;;;;6.69;67.39;101724.06;5053523;28;45280;-59
2023/01/27 03:03:50;;;;;;;;;3.00;2.00;;;;;6.79;67.97;101730.91;5054674;28;45379;-58
2023/01/27 03:06:16;;;;;;;;;3.50;2.00;;;;;6.73;67.85;101736.31;5055505;28;45527;-62
2023/01/27 03:08:42;;;;;;;;;1.00;1.00;;;;;6.68;67.66;101728.47;5055206;28;46555;-64
2023/01/27 03:11:08;;;;;;;;;2.50;2.50;;;;;6.77;68.20;101730.94;5054489;28;45389;-62
2023/01/27 03:13:35;;;;;;;;;1.00;1.00;;;;;6.77;68.13;101730.03;5052939;28;45514;-62
2023/01/27 03:18:48;;;;;;;;;5.00;3.00;;;;;6.85;68.07;101725.44;5054018;28;48181;-65
2023/01/27 03:21:15;;;;;;;;;1.00;1.00;;;;;6.83;67.74;101721.09;5055262;28;45301;-65
2023/01/27 03:23:41;;;;;;;;;3.00;2.00;;;;;6.86;68.26;101726.31;5055688;28;45409;-59
2023/01/27 03:26:08;;;;;;;;;1.75;1.75;;;;;6.90;68.26;101717.41;5053820;28;45647;-59
2023/01/27 03:28:34;;;;;;;;;1.50;1.50;;;;;6.90;67.93;101730.63;5053503;28;47015;-63
2023/01/27 03:31:01;;;;;;;;;0.25;0.25;;;;;6.78;67.42;101724.75;5055462;28;45458;-65
2023/01/27 03:33:27;;;;;;;;;1.75;1.75;;;;;6.80;67.86;101722.06;5055233;28;45293;-62
2023/01/27 03:46:49;;;;;;;;;2.00;1.25;;;;;6.78;67.04;101713.28;5055586;28;45512;-62
2023/01/27 03:49:14;;;;;;;;;2.50;2.50;;;;;6.90;67.23;101723.59;5054209;28;47228;-63
2023/01/27 03:51:39;;;;;;;;;4.00;1.25;;;;;6.92;66.95;101716.50;5055833;28;45318;-64
2023/01/27 03:54:06;;;;;;;;;1.75;1.75;;;;;6.90;67.07;101723.59;5054470;28;45291;-63
2023/01/27 03:56:31;;;;;;;;;6.00;2.00;;;;;6.73;67.14;101700.16;5055935;28;45236;-65
2023/01/27 03:58:56;;;;;;;;;1.00;1.00;;;;;6.73;67.00;101705.44;5054725;28;46189;-61
2023/01/27 04:01:23;;;;;;;;;6.25;4.50;;;;;6.78;67.34;101716.81;5053456;28;45354;-64
2023/01/27 04:06:55;;;;;;;;;8.00;3.50;;;;;6.82;67.27;101719.38;5058495;28;45353;-65
2023/01/27 04:09:24;;;;;;;;;2.00;2.00;;;;;6.78;66.74;101708.88;5057846;28;45584;-63
2023/01/27 04:11:59;;;;;;;;;1.75;0.00;;;;;6.74;67.38;101701.88;5058690;28;45446;-59
2023/01/27 04:14:33;;;;;;;;;2.50;2.50;;;;;6.71;67.71;101709.03;5057814;28;45370;-62
2023/01/27 04:17:11;;;;;;;;;5.00;2.00;;;;;6.80;67.18;101722.06;5058895;28;45305;-63
2023/01/27 04:19:37;;;;;;;;;5.25;4.00;;;;;6.81;67.41;101721.16;5057185;28;46207;-59
2023/01/27 04:22:03;;;;;;;;;5.25;4.00;;;;;6.78;67.32;101719.44;5056739;28;45508;-62
2023/01/27 04:24:29;;;;;;;;;1.25;1.25;;;;;6.79;67.26;101717.69;5058687;28;45403;-58
2023/01/27 04:26:57;;;;;;;;;1.75;1.75;;;;;6.75;66.87;101702.75;5055806;28;45657;-57
2023/01/27 04:29:25;;;;;;;;;5.50;5.00;;;;;6.71;66.55;101703.75;5053129;28;47470;-62
2023/01/27 04:31:51;;;;;;;;;3.00;3.00;;;;;6.82;66.50;101714.94;5045969;28;45742;-61
2023/01/27 04:34:16;;;;;;;;;2.50;2.50;;;;;6.73;66.54;101694.00;5057694;28;45296;-64
2023/01/27 04:36:42;;;;;;;;;1.00;1.00;;;;;6.68;66.85;101701.19;5057134;28;45360;-63
2023/01/27 04:39:08;;;;;;;;;5.25;3.50;;;;;6.72;67.43;101703.72;5057483;28;45199;-60
2023/01/27 04:41:34;;;;;;;;;2.00;2.00;;;;;6.82;66.77;101712.31;5058134;28;45361;-63
2023/01/27 04:44:01;;;;;;;;;5.00;4.00;;;;;6.73;66.32;101694.00;5057620;28;45515;-63
2023/01/27 04:46:26;;;;;;;;;8.00;3.00;;;;;6.58;66.71;101686.41;5050408;28;45292;-59
2023/01/27 04:48:52;;;;;;;;;2.00;2.00;;;;;6.65;66.65;101703.91;5072347;28;46738;-62
2023/01/27 04:51:17;;;;;;;;;0.00;0.00;;;;;6.62;66.82;101685.44;5056931;28;45458;-65
2023/01/27 04:53:43;;;;;;;;;6.00;1.75;;;;;6.69;66.91;101702.91;5054557;28;45553;-60
2023/01/27 04:56:26;;;;;;;;;4.75;2.00;;;;;6.68;66.46;101702.03;5058197;28;45641;-63
2023/01/27 04:58:52;;;;;;;;;1.00;1.00;;;;;6.80;66.68;101700.91;5057254;28;46326;-66
2023/01/27 05:01:18;;;;;;;;;5.75;1.00;;;;;6.74;66.19;101704.53;5057573;28;45453;-66
2023/01/27 05:03:43;;;;;;;;;1.00;1.00;;;;;6.73;66.52;101700.16;5057681;28;45362;-64
2023/01/27 05:06:10;;;;;;;;;1.75;1.50;;;;;6.68;66.22;101686.19;5072908;27;45418;-62
2023/01/27 05:08:36;;;;;;;;;5.75;4.00;;;;;6.67;65.91;101694.16;5056813;28;45578;-65
2023/01/27 05:11:01;;;;;;;;;1.00;1.00;;;;;6.67;66.19;101694.16;5056599;28;45330;-65
2023/01/27 05:13:27;;;;;;;;;3.50;1.75;;;;;6.70;66.52;101691.44;5057725;28;45213;-64
2023/01/27 05:16:16;;;;;;;;;2.50;2.50;;;;;6.73;66.54;101691.34;5060655;28;46531;-65
2023/01/27 05:18:44;;;;;;;;;3.50;1.75;;;;;6.69;66.54;101694.97;5056599;28;45551;-65
2023/01/27 05:21:15;;;;;;;;;4.75;1.50;;;;;6.61;66.48;101692.50;5073564;28;45416;-63
2023/01/27 05:23:41;;;;;;;;;2.00;1.00;;;;;6.64;66.29;101686.25;5063545;28;45409;-63
2023/01/27 05:26:10;;;;;;;;;2.50;2.50;;;;;6.67;66.06;101695.03;5055218;28;45680;-65
2023/01/27 05:28:37;;;;;;;;;4.00;2.00;;;;;6.66;66.25;101689.78;5062738;28;45582;-64
2023/01/27 05:31:11;;;;;;;;;2.00;2.00;;;;;6.67;66.21;101691.50;5075233;28;46106;-65
2023/01/27 05:33:37;;;;;;;;;2.00;2.00;;;;;6.59;66.32;101680.22;5057890;27;45331;-64
2023/01/27 05:36:05;;;;;;;;;4.75;3.50;;;;;6.63;66.45;101687.16;5058233;28;45235;-64
2023/01/27 05:38:30;;;;;;;;;5.25;3.00;;;;;6.59;66.49;101693.44;5055296;28;46208;-63
2023/01/27 05:41:00;;;;;;;;;1.00;1.00;;;;;6.62;67.04;101694.22;5052557;28;45372;-62
2023/01/27 05:43:30;;;;;;;;;5.25;5.25;;;;;6.62;66.54;101688.06;5037185;28;45294;-64
2023/01/27 05:46:07;;;;;;;;;1.25;1.25;;;;;6.58;66.28;101689.06;5037006;28;45545;-60
2023/01/27 05:48:35;;;;;;;;;2.00;2.00;;;;;6.63;67.35;101687.16;5036679;28;46236;-65
2023/01/27 05:51:01;;;;;;;;;1.00;1.00;;;;;6.61;66.88;101692.50;5036868;28;45343;-63
2023/01/27 05:53:26;;;;;;;;;3.00;2.00;;;;;6.62;66.62;101693.38;5038927;28;45312;-58
2023/01/27 05:55:52;;;;;;;;;4.00;4.00;;;;;6.65;66.61;101696.84;5057165;28;45554;-61
2023/01/27 05:58:18;;;;;;;;;2.00;2.00;;;;;6.67;66.66;101691.50;5056161;28;45560;-60
2023/01/27 06:00:45;;;;;;;;;5.25;4.00;;;;;6.73;66.32;101694.00;5057757;28;45506;-64
2023/01/27 06:03:10;;;;;;;;;13.50;5.25;;;;;6.78;65.87;101698.31;5052809;28;45560;-59
2023/01/27 06:05:36;;;;;;;;;5.25;4.00;;;;;6.74;66.15;101693.09;5061594;28;45391;-62
2023/01/27 06:08:01;;;;;;;;;1.00;1.00;;;;;6.78;65.86;101693.00;5056736;28;45492;-60
2023/01/27 06:10:27;;;;;;;;;3.00;3.00;;;;;6.82;65.24;101699.09;5060765;28;45493;-63
2023/01/27 06:12:52;;;;;;;;;4.25;2.50;;;;;6.81;65.30;101700.00;5060718;28;45435;-65
2023/01/27 06:15:18;;;;;;;;;9.00;4.00;;;;;6.90;65.67;101698.91;5072044;28;45420;-64
2023/01/27 06:17:43;;;;;;;;;7.75;3.50;;;;;6.88;65.33;101698.94;5055956;28;46391;-67
2023/01/27 06:20:09;;;;;;;;;8.00;6.00;;;;;6.88;64.85;101704.22;5056833;28;45433;-62
2023/01/27 06:22:34;;;;;;;;;2.00;2.00;;;;;6.90;64.71;101696.25;5055770;28;45403;-58
2023/01/27 06:25:00;;;;;;;;;4.25;2.00;;;;;6.89;64.51;101695.38;5055524;28;45582;-59
2023/01/27 06:27:25;;;;;;;;;7.50;6.50;;;;;6.94;64.14;101706.75;5072893;28;46755;-64
2023/01/27 06:29:51;;;;;;;;;8.75;2.00;;;;;6.95;64.09;101705.84;5068375;28;45343;-63
2023/01/27 06:32:16;;;;;;;;;2.00;2.00;;;;;7.01;64.68;101695.09;5058887;28;45465;-66
2023/01/27 06:34:42;;;;;;;;;6.50;2.00;;;;;6.97;64.03;101688.16;5055991;28;45398;-65
2023/01/27 06:37:07;;;;;;;;;2.00;2.00;;;;;7.03;64.00;101695.97;5062709;27;45445;-66
2023/01/27 06:39:32;;;;;;;;;1.25;0.00;;;;;7.13;64.00;101708.94;5053784;28;45271;-65
2023/01/27 06:41:58;;;;;;;;;6.50;4.00;;;;;7.16;64.04;101714.16;5054128;28;46337;-66
2023/01/27 06:44:23;;;;;;;;;1.00;1.00;;;;;7.18;63.69;101709.72;5055525;28;45423;-62
2023/01/27 06:46:48;;;;;;;;;4.50;4.50;;;;;7.00;63.61;101674.84;5056223;28;45252;-60
2023/01/27 06:49:14;;;;;;;;;6.25;3.50;;;;;7.22;63.03;101709.59;5054330;28;45557;-60
2023/01/27 06:51:40;;;;;;;;;2.00;2.00;;;;;7.18;63.43;101715.00;5052922;28;45446;-61
2023/01/27 06:54:05;;;;;;;;;3.50;3.50;;;;;7.24;63.50;101715.72;5053356;28;45472;-64
2023/01/27 06:56:30;;;;;;;;;5.00;3.00;;;;;7.25;63.28;101712.16;5052859;28;45397;-63
2023/01/27 06:58:56;;;;;;;;;5.75;2.50;;;;;7.30;63.27;101720.88;5056134;28;45363;-60
2023/01/27 07:01:21;;;;;;;;;2.00;2.00;;;;;7.28;62.82;101716.50;5055160;28;45330;-61
2023/01/27 07:03:47;;;;;;;;;11.25;6.00;;;;;7.25;62.87;101714.81;5054394;28;45513;-57
2023/01/27 07:06:13;;;;;;;;;1.75;1.75;;;;;7.21;62.58;101704.34;5055551;28;45515;-64
2023/01/27 07:08:39;;;;;;;;;5.00;4.00;;;;;7.15;62.38;101725.63;5053542;28;45494;-61
2023/01/27 07:11:05;;;;;;;;;7.00;5.00;;;;;7.04;62.59;101713.56;5053495;28;45521;-60
2023/01/27 07:13:30;;;;;;;;;9.50;4.00;;;;;7.05;62.94;101727.66;5054527;28;45421;-59
2023/01/27 07:15:55;;;;;;;;;1.00;1.00;;;;;7.04;63.32;101708.28;5054892;28;45753;-60
2023/01/27 07:18:22;;;;;;;;;2.00;2.00;;;;;7.06;63.45;101714.38;5053334;28;45272;-61
2023/01/27 07:20:47;;;;;;;;;5.00;5.00;;;;;7.13;63.16;101738.03;5068705;28;45468;-59
2023/01/27 07:23:13;;;;;;;;;5.25;4.25;;;;;7.11;63.17;101716.91;5057503;28;45670;-62
2023/01/27 07:25:39;;;;;;;;;5.50;4.25;;;;;7.06;63.33;101727.63;5076527;27;46033;-60
2023/01/27 07:28:05;;;;;;;;;8.25;6.25;;;;;7.16;63.71;101735.31;5055451;28;46297;-62
2023/01/27 07:30:32;;;;;;;;;7.50;4.00;;;;;7.13;63.39;101738.03;5049613;28;45540;-62
2023/01/27 07:33:05;;;;;;;;;9.75;8.00;;;;;7.08;63.14;101712.56;5055625;27;45667;-62
2023/01/27 07:35:31;;;;;;;;;6.00;4.50;;;;;7.22;62.81;101741.34;5053217;28;48098;-62
2023/01/27 07:37:57;;;;;;;;;14.25;5.50;;;;;7.24;62.94;101738.66;5057211;28;45426;-62
2023/01/27 07:40:23;;;;;;;;;4.25;4.25;;;;;7.22;62.75;101735.19;5060480;28;45400;-60
2023/01/27 07:42:48;;;;;;;;;8.00;8.00;;;;;7.19;63.08;101735.25;5055346;28;46118;-62
2023/01/27 07:45:14;;;;;;;;;7.50;5.75;;;;;7.21;62.59;101750.19;5055742;28;45370;-61
2023/01/27 07:47:39;;;;;;;;;7.00;5.75;;;;;7.18;62.78;101749.41;5087532;27;45558;-58
2023/01/27 07:50:05;;;;;;;;;3.50;3.50;;;;;7.20;63.08;101756.38;5053593;28;45379;-60
2023/01/27 07:52:30;;;;;;;;;4.00;4.00;;;;;7.17;63.28;101753.81;5064896;28;45442;-59
2023/01/27 07:54:56;;;;;;;;;6.25;5.50;;;;;7.19;63.28;101761.72;5063012;27;46122;-59
2023/01/27 07:57:22;;;;;;;;;8.75;8.75;;;;;7.23;64.00;101771.31;5059968;27;45531;-58
2023/01/27 07:59:47;;;;;;;;;11.00;9.75;;;;;7.12;64.03;101741.59;5076945;28;45418;-59
2023/01/27 08:02:13;;;;;;;;;4.00;4.00;;;;;7.14;63.79;101748.59;5066927;27;45335;-58
2023/01/27 08:04:38;;;;;;;;;8.00;7.50;;;;;7.32;63.93;101774.63;5066643;28;46977;-61
2023/01/27 08:07:04;;;;;;;;;5.25;5.00;;;;;7.22;63.09;101766.94;5071910;27;45561;-61
2023/01/27 08:09:30;;;;;;;;;4.50;4.50;;;;;7.25;62.85;101766.84;5070446;27;45334;-59
2023/01/27 08:11:55;;;;;;;;;12.00;10.25;;;;;7.23;61.91;101771.31;5058734;27;45203;-63
2023/01/27 08:14:20;;;;;;;;;15.00;8.50;;;;;7.12;62.83;101762.75;5054975;28;58412;-60
2023/01/27 08:16:46;;;;;;;;;8.25;6.50;;;;;7.18;62.52;101771.44;5066842;28;45476;-60
2023/01/27 08:19:12;;;;;;;;;11.00;8.00;;;;;7.18;62.61;101770.56;5045424;28;45418;-60
2023/01/27 08:21:37;;;;;;;;;3.00;3.00;;;;;7.14;61.86;101768.88;5058460;28;45427;-62
2023/01/27 08:24:03;;;;;;;;;7.00;6.50;;;;;7.06;62.19;101772.59;5056754;28;45927;-59
2023/01/27 08:26:28;;;;;;;;;8.50;6.00;;;;;7.03;63.20;101761.19;5057151;28;45440;-60
2023/01/27 08:28:53;;;;;;;;;8.50;7.00;;;;;7.12;63.03;101770.69;5064993;28;45469;-60
2023/01/27 08:31:19;;;;;;;;;9.75;9.00;;;;;7.16;62.95;101773.25;5063485;27;45414;-61
2023/01/27 08:33:50;;;;;;;;;8.00;6.25;;;;;7.13;62.58;101773.28;5059220;28;45480;-60
2023/01/27 08:36:17;;;;;;;;;8.25;5.00;;;;;7.02;62.81;101781.47;5078517;27;45406;-61
2023/01/27 08:38:44;;;;;;;;;7.50;5.50;;;;;7.03;62.77;101788.53;5078430;28;45408;-63
2023/01/27 08:41:18;;;;;;;;;8.50;5.25;;;;;6.99;63.12;101785.97;5078400;27;45341;-60
2023/01/27 08:43:43;;;;;;;;;5.00;5.00;;;;;6.97;62.89;101790.44;5063923;27;46081;-62
2023/01/27 08:46:09;;;;;;;;;9.25;5.00;;;;;6.97;62.60;101793.06;5057636;28;45515;-59
2023/01/27 08:48:35;;;;;;;;;8.00;8.00;;;;;6.98;62.54;101790.38;5072543;28;45341;-58
2023/01/27 08:51:02;;;;;;;;;12.00;9.25;;;;;6.98;62.50;101785.09;5078457;27;45577;-62
2023/01/27 08:53:27;;;;;;;;;10.75;9.50;;;;;6.95;62.31;101779.00;5061945;27;45316;-62
2023/01/27 08:55:57;;;;;;;;;18.25;10.25;;;;;6.86;64.57;101795.94;5058299;28;45192;-55
2023/01/27 08:58:23;;;;;;;;;13.50;8.00;;;;;6.92;63.15;101789.66;5058002;28;45373;-59
2023/01/27 09:00:49;;;;;;;;;12.25;8.75;;;;;6.93;62.61;101802.84;5058216;28;45610;-58
2023/01/27 09:03:15;;;;;;;;;5.50;5.00;;;;;6.95;62.84;101793.09;5057723;28;45305;-62
2023/01/27 09:05:43;;;;;;;;;8.50;8.25;;;;;6.99;61.66;101797.41;5056087;28;45445;-63
2023/01/27 09:08:09;;;;;;;;;8.75;8.00;;;;;6.95;62.10;101801.03;5057057;28;45477;-58
2023/01/27 09:10:39;;;;;;;;;6.50;6.00;;;;;7.04;62.09;101803.50;5056147;28;45504;-52
2023/01/27 09:13:06;;;;;;;;;11.75;9.25;;;;;7.04;61.99;101806.13;5056113;28;45378;-55
2023/01/27 09:15:31;;;;;;;;;8.00;8.00;;;;;7.07;62.52;101802.56;5055480;28;46086;-58
